Time;durP1;ratioP1;P1;durP2;ratioP2;P2;SDS_P1;SDS_P2;PMS_P1;PMS_P2;Temp;Humidity;BMP_temperature;BMP_pressure;BME280_temperature;BME280_humidity;BME280_pressure;Samples;Min_cycle;Max_cycle;Signal;HPM_P1;HPM_P2
2022/11/21 00:00:57;;;;;;;42.70;21.50;;;;;;;;;;4983567;28;20073;-64
2022/11/21 00:03:24;;;;;;;38.05;20.25;;;;;;;;;;5005297;28;20046;-65
2022/11/21 00:05:50;;;;;;;42.47;21.10;;;;;;;;;;4968220;28;20048;-65
2022/11/21 00:08:18;;;;;;;47.05;20.77;;;;;;;;;;4972182;28;20518;-65
2022/11/21 00:10:44;;;;;;;41.20;20.00;;;;;;;;;;5008628;28;20385;-65
2022/11/21 00:13:18;;;;;;;45.63;22.40;;;;;;;;;;5026685;28;20046;-65
2022/11/21 00:15:44;;;;;;;43.47;22.00;;;;;;;;;;5005628;28;20045;-64
2022/11/21 00:18:11;;;;;;;43.72;20.98;;;;;;;;;;5015742;28;20033;-64
2022/11/21 00:20:38;;;;;;;42.35;21.98;;;;;;;;;;4989151;28;20049;-64
2022/11/21 00:23:04;;;;;;;41.47;21.00;;;;;;;;;;4998493;28;20559;-64
2022/11/21 00:25:30;;;;;;;40.88;20.80;;;;;;;;;;5013771;28;20096;-64
2022/11/21 00:27:56;;;;;;;40.10;21.77;;;;;;;;;;5015064;28;20069;-65
2022/11/21 00:30:22;;;;;;;38.55;20.08;;;;;;;;;;4995965;28;20167;-65
2022/11/21 00:32:48;;;;;;;44.92;21.70;;;;;;;;;;5023284;28;20433;-65
2022/11/21 00:35:17;;;;;;;38.95;21.80;;;;;;;;;;5014000;28;21595;-65
2022/11/21 00:37:43;;;;;;;37.88;21.63;;;;;;;;;;5010728;28;20960;-65
2022/11/21 00:40:09;;;;;;;40.53;20.98;;;;;;;;;;5029767;28;20096;-65
2022/11/21 00:42:35;;;;;;;44.33;21.80;;;;;;;;;;5014211;28;20050;-65
2022/11/21 00:45:01;;;;;;;41.72;22.17;;;;;;;;;;5005840;28;20041;-65
2022/11/21 00:47:27;;;;;;;43.17;22.30;;;;;;;;;;5013759;28;20048;-65
2022/11/21 00:49:53;;;;;;;40.92;20.20;;;;;;;;;;4993973;28;20132;-65
2022/11/21 00:52:19;;;;;;;43.35;20.52;;;;;;;;;;4998336;28;20099;-65
2022/11/21 00:54:45;;;;;;;42.22;20.50;;;;;;;;;;5005368;28;20037;-65
2022/11/21 00:57:12;;;;;;;41.85;21.13;;;;;;;;;;5001332;28;20037;-64
2022/11/21 00:59:38;;;;;;;40.17;20.73;;;;;;;;;;5015022;28;20044;-64
2022/11/21 01:02:04;;;;;;;43.65;22.58;;;;;;;;;;4999816;28;20034;-64
2022/11/21 01:04:31;;;;;;;38.58;20.23;;;;;;;;;;5027914;28;20128;-64
2022/11/21 01:06:57;;;;;;;39.00;20.95;;;;;;;;;;5014931;28;20042;-64
2022/11/21 01:09:23;;;;;;;43.60;20.13;;;;;;;;;;5008278;28;20501;-64
2022/11/21 01:11:49;;;;;;;41.65;21.60;;;;;;;;;;5004255;28;20037;-64
2022/11/21 01:14:16;;;;;;;45.00;21.13;;;;;;;;;;5010744;28;20080;-64
2022/11/21 01:16:42;;;;;;;44.65;22.00;;;;;;;;;;5015276;28;20104;-64
2022/11/21 01:19:08;;;;;;;39.75;20.58;;;;;;;;;;5008064;28;20103;-64
2022/11/21 01:21:34;;;;;;;39.35;19.92;;;;;;;;;;4997892;28;20385;-64
2022/11/21 01:24:01;;;;;;;39.55;20.95;;;;;;;;;;4999458;28;20065;-64
2022/11/21 01:26:29;;;;;;;37.97;20.98;;;;;;;;;;5006578;28;20123;-64
2022/11/21 01:28:56;;;;;;;40.13;20.08;;;;;;;;;;5008594;28;20436;-64
2022/11/21 01:31:23;;;;;;;43.42;21.42;;;;;;;;;;5000360;28;20099;-64
2022/11/21 01:33:50;;;;;;;39.63;21.00;;;;;;;;;;5009630;28;20128;-64
2022/11/21 01:36:21;;;;;;;39.03;20.63;;;;;;;;;;5015656;28;20050;-66
2022/11/21 01:38:47;;;;;;;;;;;;;;;;;;4985320;28;20133;-64
2022/11/21 01:41:14;;;;;;;38.25;19.50;;;;;;;;;;5012565;28;20328;-64
2022/11/21 01:43:40;;;;;;;38.25;19.45;;;;;;;;;;5018840;28;20034;-64
2022/11/21 01:46:09;;;;;;;40.85;21.05;;;;;;;;;;5010422;28;20033;-64
2022/11/21 01:48:38;;;;;;;42.20;21.13;;;;;;;;;;5017194;28;20068;-64
2022/11/21 01:51:11;;;;;;;45.90;20.98;;;;;;;;;;4998159;28;20068;-64
2022/11/21 01:53:38;;;;;;;39.80;20.25;;;;;;;;;;5009258;28;20033;-64
2022/11/21 01:56:05;;;;;;;38.47;20.20;;;;;;;;;;4996595;28;20037;-64
2022/11/21 01:58:32;;;;;;;38.17;20.92;;;;;;;;;;5017326;28;20048;-64
2022/11/21 02:00:58;;;;;;;37.05;19.52;;;;;;;;;;4980924;28;20053;-64
2022/11/21 02:03:26;;;;;;;41.95;21.13;;;;;;;;;;5007461;28;20472;-64
2022/11/21 02:05:53;;;;;;;42.10;21.15;;;;;;;;;;4980771;28;20034;-64
2022/11/21 02:08:20;;;;;;;37.92;20.20;;;;;;;;;;5024599;28;20474;-64
2022/11/21 02:10:50;;;;;;;43.72;19.83;;;;;;;;;;5022291;28;20100;-63
2022/11/21 02:13:16;;;;;;;40.03;20.77;;;;;;;;;;5009518;28;20121;-64
2022/11/21 02:15:42;;;;;;;39.33;21.83;;;;;;;;;;4979229;28;20299;-64
2022/11/21 02:18:09;;;;;;;44.88;20.83;;;;;;;;;;4990339;28;20068;-64
2022/11/21 02:20:36;;;;;;;40.20;21.42;;;;;;;;;;5003011;28;20037;-64
2022/11/21 02:23:09;;;;;;;38.53;19.50;;;;;;;;;;5009355;28;20075;-64
2022/11/21 02:25:37;;;;;;;38.97;21.83;;;;;;;;;;5020688;28;20428;-64
2022/11/21 02:28:07;;;;;;;41.72;21.75;;;;;;;;;;5013973;28;20041;-64
2022/11/21 02:30:35;;;;;;;41.50;21.67;;;;;;;;;;5019609;28;20038;-64
2022/11/21 02:33:01;;;;;;;41.28;21.08;;;;;;;;;;5008431;28;20054;-64
2022/11/21 02:35:27;;;;;;;38.17;20.48;;;;;;;;;;5008925;22;20041;-65
2022/11/21 02:37:57;;;;;;;36.70;19.55;;;;;;;;;;5018926;28;20497;-65
2022/11/21 02:40:25;;;;;;;41.95;21.58;;;;;;;;;;5032694;28;20048;-65
2022/11/21 02:43:14;;;;;;;40.28;22.08;;;;;;;;;;5033633;28;20065;-65
2022/11/21 02:45:44;;;;;;;36.42;19.40;;;;;;;;;;5000281;28;20090;-66
2022/11/21 02:48:10;;;;;;;39.67;20.80;;;;;;;;;;5032245;28;20049;-65
2022/11/21 02:50:37;;;;;;;37.78;19.80;;;;;;;;;;5033459;28;20052;-64
2022/11/21 02:53:04;;;;;;;39.10;20.40;;;;;;;;;;5029043;28;20673;-64
2022/11/21 02:55:30;;;;;;;41.70;20.92;;;;;;;;;;5025852;28;20053;-64
2022/11/21 02:57:57;;;;;;;39.92;21.25;;;;;;;;;;5023398;28;20045;-65
2022/11/21 03:00:23;;;;;;;36.83;18.90;;;;;;;;;;5033098;28;20063;-65
2022/11/21 03:02:49;;;;;;;40.90;20.40;;;;;;;;;;5016087;28;20129;-66
2022/11/21 03:05:16;;;;;;;39.75;20.85;;;;;;;;;;5046555;28;20057;-65
2022/11/21 03:07:42;;;;;;;45.35;22.23;;;;;;;;;;5014499;28;20128;-65
2022/11/21 03:10:09;;;;;;;41.70;21.27;;;;;;;;;;5024855;28;20059;-65
2022/11/21 03:12:35;;;;;;;42.85;20.98;;;;;;;;;;5009615;28;20405;-65
2022/11/21 03:15:01;;;;;;;42.92;20.77;;;;;;;;;;5049256;28;20080;-66
2022/11/21 03:17:27;;;;;;;35.92;19.65;;;;;;;;;;5054099;28;20041;-65
2022/11/21 03:19:53;;;;;;;35.67;19.75;;;;;;;;;;5012080;28;20060;-65
2022/11/21 03:22:20;;;;;;;44.63;23.50;;;;;;;;;;5018080;28;20049;-65
2022/11/21 03:24:46;;;;;;;35.88;20.10;;;;;;;;;;5042577;28;20076;-65
2022/11/21 03:27:12;;;;;;;42.08;21.00;;;;;;;;;;5051056;28;20084;-65
2022/11/21 03:29:38;;;;;;;38.85;20.40;;;;;;;;;;5028690;28;20510;-65
2022/11/21 03:32:04;;;;;;;44.38;21.58;;;;;;;;;;5049836;28;20041;-65
2022/11/21 03:34:30;;;;;;;44.85;22.70;;;;;;;;;;5011148;28;20420;-65
2022/11/21 03:36:56;;;;;;;45.03;21.73;;;;;;;;;;5001777;28;20058;-65
2022/11/21 03:39:22;;;;;;;44.58;22.52;;;;;;;;;;5010557;28;20058;-66
2022/11/21 03:41:48;;;;;;;39.67;20.88;;;;;;;;;;4978680;28;20050;-65
2022/11/21 03:44:14;;;;;;;37.05;19.55;;;;;;;;;;4993400;28;20129;-65
2022/11/21 03:46:42;;;;;;;35.50;18.98;;;;;;;;;;4997350;28;20483;-66
2022/11/21 03:49:08;;;;;;;37.40;19.75;;;;;;;;;;5002092;28;20050;-65
2022/11/21 03:51:34;;;;;;;34.45;18.52;;;;;;;;;;5014368;28;20038;-65
2022/11/21 03:54:00;;;;;;;42.15;20.33;;;;;;;;;;5008698;28;20042;-65
2022/11/21 03:56:27;;;;;;;38.55;19.45;;;;;;;;;;5011931;28;20521;-65
2022/11/21 03:58:53;;;;;;;39.17;20.52;;;;;;;;;;4992855;28;20053;-66
2022/11/21 04:01:20;;;;;;;41.53;20.98;;;;;;;;;;5000985;28;20510;-65
2022/11/21 04:03:46;;;;;;;42.40;20.83;;;;;;;;;;4994690;28;20073;-65
2022/11/21 04:06:13;;;;;;;40.70;21.23;;;;;;;;;;4996890;28;20392;-65
2022/11/21 04:08:39;;;;;;;40.08;20.02;;;;;;;;;;5010007;28;20056;-66
2022/11/21 04:11:06;;;;;;;37.85;19.10;;;;;;;;;;5010293;28;20383;-65
2022/11/21 04:13:32;;;;;;;37.05;19.75;;;;;;;;;;5011193;28;20046;-66
2022/11/21 04:15:58;;;;;;;33.83;19.15;;;;;;;;;;4993658;28;20403;-65
2022/11/21 04:18:24;;;;;;;43.33;22.55;;;;;;;;;;5001864;28;20121;-65
2022/11/21 04:20:57;;;;;;;40.65;20.05;;;;;;;;;;4998529;28;20502;-65
2022/11/21 04:23:23;;;;;;;48.83;19.92;;;;;;;;;;5013221;28;20073;-65
2022/11/21 04:25:49;;;;;;;43.70;21.60;;;;;;;;;;5012016;28;20554;-66
2022/11/21 04:28:15;;;;;;;39.85;21.73;;;;;;;;;;5000717;28;20129;-66
2022/11/21 04:30:41;;;;;;;40.00;21.92;;;;;;;;;;4993282;28;20137;-66
2022/11/21 04:33:07;;;;;;;41.17;21.02;;;;;;;;;;4995221;28;20142;-65
2022/11/21 04:35:33;;;;;;;42.03;21.27;;;;;;;;;;4995598;28;20046;-65
2022/11/21 04:37:59;;;;;;;46.33;21.73;;;;;;;;;;5016518;28;20053;-66
2022/11/21 04:40:25;;;;;;;44.75;22.55;;;;;;;;;;5016800;28;20041;-65
2022/11/21 04:42:51;;;;;;;45.03;22.52;;;;;;;;;;5020335;28;20142;-66
2022/11/21 04:45:17;;;;;;;49.05;23.35;;;;;;;;;;5031948;28;20146;-65
2022/11/21 04:47:44;;;;;;;48.50;22.92;;;;;;;;;;5031051;28;20119;-66
2022/11/21 04:50:12;;;;;;;48.63;24.10;;;;;;;;;;5028820;28;20073;-65
2022/11/21 04:52:38;;;;;;;41.53;21.15;;;;;;;;;;5035935;28;20083;-65
2022/11/21 04:55:04;;;;;;;44.55;23.33;;;;;;;;;;5043091;28;20045;-66
2022/11/21 04:57:31;;;;;;;43.05;21.50;;;;;;;;;;5048794;28;20493;-65
2022/11/21 04:59:57;;;;;;;48.00;23.52;;;;;;;;;;5015430;28;20046;-66
2022/11/21 05:02:23;;;;;;;41.40;22.63;;;;;;;;;;5016644;28;20060;-66
2022/11/21 05:04:49;;;;;;;47.60;23.15;;;;;;;;;;5012356;28;20400;-66
2022/11/21 05:07:15;;;;;;;43.33;21.77;;;;;;;;;;5015552;28;20055;-65
2022/11/21 05:09:41;;;;;;;46.35;22.30;;;;;;;;;;5018800;28;20106;-66
2022/11/21 05:14:54;;;;;;;43.63;21.52;;;;;;;;;;5044777;28;20055;-65
2022/11/21 05:17:20;;;;;;;43.50;22.95;;;;;;;;;;5015454;28;20050;-65
2022/11/21 05:19:46;;;;;;;47.33;23.23;;;;;;;;;;5022957;28;20048;-65
2022/11/21 05:22:12;;;;;;;45.95;21.85;;;;;;;;;;5034055;28;20061;-65
2022/11/21 05:24:38;;;;;;;44.92;20.88;;;;;;;;;;5052781;28;20059;-64
2022/11/21 05:27:04;;;;;;;49.70;23.98;;;;;;;;;;5034683;28;20080;-64
2022/11/21 05:29:30;;;;;;;44.80;22.92;;;;;;;;;;5032747;28;20045;-65
2022/11/21 05:31:56;;;;;;;49.63;23.35;;;;;;;;;;5016143;28;20124;-65
2022/11/21 05:34:22;;;;;;;49.45;23.98;;;;;;;;;;5010338;28;20089;-65
2022/11/21 05:36:48;;;;;;;45.83;21.80;;;;;;;;;;5033374;28;20063;-65
2022/11/21 05:39:14;;;;;;;49.58;23.08;;;;;;;;;;5049338;28;20124;-65
2022/11/21 05:41:41;;;;;;;50.30;22.65;;;;;;;;;;5034601;28;20045;-65
2022/11/21 05:44:07;;;;;;;48.30;22.80;;;;;;;;;;5014529;28;20048;-65
2022/11/21 05:46:33;;;;;;;51.60;25.73;;;;;;;;;;5038346;28;20041;-65
2022/11/21 05:48:59;;;;;;;53.47;25.08;;;;;;;;;;5029310;28;20051;-65
2022/11/21 05:54:01;;;;;;;50.80;24.42;;;;;;;;;;4978373;28;20048;-65
2022/11/21 05:56:27;;;;;;;58.40;25.52;;;;;;;;;;4994354;28;20048;-64
2022/11/21 05:58:57;;;;;;;57.63;23.67;;;;;;;;;;4978868;28;20089;-64
2022/11/21 06:04:09;;;;;;;47.42;21.70;;;;;;;;;;4999568;28;20786;-64
2022/11/21 06:06:35;;;;;;;50.90;23.63;;;;;;;;;;5057357;22;20057;-66
2022/11/21 06:09:10;;;;;;;54.85;25.48;;;;;;;;;;5029804;28;20540;-64
2022/11/21 06:11:36;;;;;;;52.20;23.42;;;;;;;;;;4997319;28;20096;-64
2022/11/21 06:14:02;;;;;;;51.88;24.23;;;;;;;;;;5013637;28;20049;-64
2022/11/21 06:16:28;;;;;;;56.88;24.15;;;;;;;;;;4996617;28;20120;-65
2022/11/21 06:18:54;;;;;;;57.28;26.42;;;;;;;;;;4980205;28;20478;-65
2022/11/21 06:21:22;;;;;;;62.53;25.80;;;;;;;;;;5002834;28;20108;-64
2022/11/21 06:23:50;;;;;;;51.05;25.55;;;;;;;;;;5012241;28;20449;-64
2022/11/21 06:26:17;;;;;;;60.10;26.70;;;;;;;;;;5030037;28;20049;-64
2022/11/21 06:28:44;;;;;;;55.17;24.40;;;;;;;;;;5013264;28;20041;-64
2022/11/21 06:31:11;;;;;;;62.15;24.50;;;;;;;;;;5003322;28;20041;-64
2022/11/21 06:33:38;;;;;;;60.67;26.17;;;;;;;;;;5012390;28;20041;-64
2022/11/21 06:36:06;;;;;;;65.28;28.05;;;;;;;;;;5029700;28;20041;-65
2022/11/21 06:38:32;;;;;;;63.58;27.05;;;;;;;;;;5014582;28;20049;-65
2022/11/21 06:41:02;;;;;;;60.50;26.67;;;;;;;;;;4986455;28;20050;-64
2022/11/21 06:43:28;;;;;;;59.40;26.88;;;;;;;;;;5012740;28;20064;-65
2022/11/21 06:45:58;;;;;;;61.25;27.48;;;;;;;;;;4989281;28;20497;-65
2022/11/21 06:48:24;;;;;;;58.35;25.13;;;;;;;;;;4994748;28;20168;-65
2022/11/21 06:50:50;;;;;;;53.00;25.77;;;;;;;;;;4988575;28;20057;-65
2022/11/21 06:53:17;;;;;;;58.70;25.45;;;;;;;;;;5031119;28;20046;-64
2022/11/21 06:55:43;;;;;;;54.45;23.48;;;;;;;;;;5029831;28;20045;-65
2022/11/21 06:58:10;;;;;;;60.05;26.05;;;;;;;;;;5031819;28;20115;-64
2022/11/21 07:00:36;;;;;;;59.33;27.55;;;;;;;;;;5008061;28;20056;-65
2022/11/21 07:03:02;;;;;;;56.63;26.55;;;;;;;;;;5004176;28;20045;-65
2022/11/21 07:05:28;;;;;;;65.05;26.50;;;;;;;;;;4994759;28;20038;-64
2022/11/21 07:08:01;;;;;;;67.18;27.20;;;;;;;;;;5004487;28;20066;-65
2022/11/21 07:10:28;;;;;;;68.28;27.13;;;;;;;;;;5015491;28;20085;-64
2022/11/21 07:15:43;;;;;;;76.93;25.30;;;;;;;;;;5002435;28;20417;-64
2022/11/21 07:18:09;;;;;;;89.70;22.27;;;;;;;;;;4999497;28;20046;-63
2022/11/21 07:20:35;;;;;;;106.38;27.20;;;;;;;;;;5034351;28;20060;-64
2022/11/21 07:23:01;;;;;;;153.40;32.85;;;;;;;;;;5012534;28;20049;-64
2022/11/21 07:25:27;;;;;;;149.95;31.90;;;;;;;;;;5021224;28;20045;-63
2022/11/21 07:27:53;;;;;;;104.57;29.40;;;;;;;;;;5027847;28;20095;-64
2022/11/21 07:30:19;;;;;;;70.90;23.13;;;;;;;;;;5029848;28;20102;-64
2022/11/21 07:32:45;;;;;;;91.90;25.77;;;;;;;;;;5030859;28;20081;-64
2022/11/21 07:35:11;;;;;;;148.82;25.98;;;;;;;;;;5014033;28;20043;-65
2022/11/21 07:37:38;;;;;;;86.05;27.67;;;;;;;;;;5031388;28;20117;-64
2022/11/21 07:40:05;;;;;;;103.30;26.95;;;;;;;;;;5030524;28;20057;-64
2022/11/21 07:42:33;;;;;;;147.25;24.17;;;;;;;;;;5026251;28;20072;-64
2022/11/21 07:45:00;;;;;;;135.68;25.90;;;;;;;;;;5027488;28;20142;-64
2022/11/21 07:47:26;;;;;;;125.35;23.85;;;;;;;;;;5022237;28;20054;-63
2022/11/21 07:49:52;;;;;;;170.25;26.42;;;;;;;;;;5030301;28;20077;-64
2022/11/21 07:52:18;;;;;;;107.35;21.90;;;;;;;;;;4993374;28;20046;-63
2022/11/21 07:54:44;;;;;;;122.05;22.27;;;;;;;;;;4977604;28;20128;-64
2022/11/21 07:57:10;;;;;;;61.65;21.73;;;;;;;;;;4982008;28;20041;-64
2022/11/21 07:59:37;;;;;;;129.05;24.10;;;;;;;;;;4998229;28;20136;-65
2022/11/21 08:02:03;;;;;;;103.35;17.08;;;;;;;;;;5013197;28;20100;-64
2022/11/21 08:04:29;;;;;;;103.32;20.58;;;;;;;;;;5031025;28;20042;-64
2022/11/21 08:06:55;;;;;;;50.63;17.55;;;;;;;;;;5014568;28;20053;-64
2022/11/21 08:09:21;;;;;;;85.93;22.00;;;;;;;;;;5015284;28;20125;-64
2022/11/21 08:11:47;;;;;;;41.10;15.43;;;;;;;;;;5013427;28;20121;-64
2022/11/21 08:14:13;;;;;;;58.95;18.73;;;;;;;;;;5032277;28;20081;-63
2022/11/21 08:16:39;;;;;;;145.85;24.95;;;;;;;;;;5015689;28;20409;-65
2022/11/21 08:19:05;;;;;;;67.25;18.73;;;;;;;;;;5000181;28;20136;-63
2022/11/21 08:21:31;;;;;;;78.47;22.05;;;;;;;;;;5033821;28;20081;-63
2022/11/21 08:23:57;;;;;;;143.05;25.77;;;;;;;;;;5017267;28;20082;-64
2022/11/21 08:26:23;;;;;;;69.63;20.23;;;;;;;;;;5031785;28;20091;-61
2022/11/21 08:28:49;;;;;;;59.85;18.52;;;;;;;;;;5015267;28;20057;-63
2022/11/21 08:31:15;;;;;;;53.47;16.95;;;;;;;;;;5017491;28;20042;-63
2022/11/21 08:33:41;;;;;;;73.20;18.38;;;;;;;;;;4997916;28;20069;-63
2022/11/21 08:36:07;;;;;;;93.10;20.23;;;;;;;;;;5042712;28;20121;-63
2022/11/21 08:38:33;;;;;;;55.78;18.52;;;;;;;;;;5013102;28;20041;-63
2022/11/21 08:43:44;;;;;;;70.78;18.05;;;;;;;;;;5030353;28;20045;-63
2022/11/21 08:46:10;;;;;;;62.05;18.67;;;;;;;;;;5011430;28;20136;-63
2022/11/21 08:48:36;;;;;;;49.03;18.08;;;;;;;;;;5013908;28;20037;-63
2022/11/21 08:51:02;;;;;;;43.58;16.73;;;;;;;;;;5014447;28;20064;-63
2022/11/21 08:53:28;;;;;;;44.38;15.70;;;;;;;;;;5014737;28;20049;-63
2022/11/21 08:55:55;;;;;;;41.58;17.10;;;;;;;;;;5029599;28;20083;-63
2022/11/21 08:58:21;;;;;;;41.30;17.92;;;;;;;;;;5013396;28;20045;-63
2022/11/21 09:00:47;;;;;;;41.25;17.90;;;;;;;;;;5013164;28;20050;-63
2022/11/21 09:03:13;;;;;;;46.63;19.15;;;;;;;;;;5029433;28;20053;-63
2022/11/21 09:05:40;;;;;;;36.55;14.43;;;;;;;;;;5031690;28;20045;-64
2022/11/21 09:08:06;;;;;;;48.70;18.05;;;;;;;;;;5010521;28;20107;-64
2022/11/21 09:10:32;;;;;;;38.88;16.20;;;;;;;;;;5009157;28;20049;-64
2022/11/21 09:12:58;;;;;;;37.35;13.80;;;;;;;;;;5031233;28;20473;-64
2022/11/21 09:18:12;;;;;;;41.92;17.85;;;;;;;;;;5031873;28;20066;-64
2022/11/21 09:20:39;;;;;;;41.22;16.42;;;;;;;;;;5015061;28;20046;-64
2022/11/21 09:23:07;;;;;;;43.00;17.55;;;;;;;;;;5012141;28;20060;-64
2022/11/21 09:25:33;;;;;;;39.97;13.73;;;;;;;;;;5027999;28;20045;-64
2022/11/21 09:28:03;;;;;;;38.05;16.35;;;;;;;;;;5010092;28;20210;-65
2022/11/21 09:30:29;;;;;;;45.93;16.37;;;;;;;;;;5031042;28;20084;-64
2022/11/21 09:32:59;;;;;;;36.55;16.10;;;;;;;;;;5010048;28;20050;-64
2022/11/21 09:35:25;;;;;;;37.87;15.30;;;;;;;;;;5010281;28;20045;-64
2022/11/21 09:37:51;;;;;;;36.92;14.80;;;;;;;;;;5014221;28;20100;-66
2022/11/21 09:40:17;;;;;;;30.13;13.05;;;;;;;;;;5011279;28;20441;-64
2022/11/21 09:42:46;;;;;;;35.40;13.35;;;;;;;;;;5013413;28;20084;-64
2022/11/21 09:45:18;;;;;;;34.30;16.23;;;;;;;;;;5013347;28;20140;-64
2022/11/21 09:47:45;;;;;;;38.50;16.45;;;;;;;;;;5011610;28;20050;-65
2022/11/21 09:50:11;;;;;;;41.35;15.70;;;;;;;;;;4997066;28;20075;-64
2022/11/21 09:52:39;;;;;;;40.22;17.23;;;;;;;;;;4994012;28;20049;-64
2022/11/21 09:55:25;;;;;;;40.45;16.88;;;;;;;;;;5012622;28;20041;-64
2022/11/21 09:57:51;;;;;;;33.88;16.02;;;;;;;;;;4996594;28;20053;-64
2022/11/21 10:00:22;;;;;;;31.42;15.02;;;;;;;;;;5031495;28;20045;-64
2022/11/21 10:02:48;;;;;;;31.67;15.05;;;;;;;;;;5013940;28;20044;-64
2022/11/21 10:05:15;;;;;;;25.60;13.05;;;;;;;;;;5013222;28;20185;-65
2022/11/21 10:07:42;;;;;;;27.98;13.63;;;;;;;;;;5030948;28;20061;-65
2022/11/21 10:10:30;;;;;;;25.85;13.05;;;2.70;99.90;;;;;;5009817;28;20060;-64
2022/11/21 10:12:59;;;;;;;22.80;12.60;;;;;;;;;;5010900;28;20057;-65
2022/11/21 10:15:43;;;;;;;25.98;13.25;;;2.90;99.90;;;;;;5029190;28;20077;-65
2022/11/21 10:18:26;;;;;;;23.02;12.05;;;;;;;;;;4994324;28;20049;-66
2022/11/21 10:20:52;;;;;;;23.08;11.48;;;;;;;;;;5010595;28;20052;-64
2022/11/21 10:23:28;;;;;;;22.75;11.77;;;;;;;;;;5011696;28;20046;-65
2022/11/21 10:26:11;;;;;;;21.35;11.80;;;;;;;;;;5013623;28;20049;-64
2022/11/21 10:28:40;;;;;;;22.60;11.70;;;;;;;;;;5012175;28;20053;-64
2022/11/21 10:31:10;;;;;;;19.35;8.65;;;;;;;;;;5030787;28;20040;-65
2022/11/21 10:33:39;;;;;;;23.42;12.73;;;;;;;;;;5011843;28;20042;-64
2022/11/21 10:36:11;;;;;;;23.20;11.68;;;;;;;;;;5008474;28;20045;-64
2022/11/21 10:38:38;;;;;;;22.70;11.70;;;;;;;;;;5018006;28;20049;-64
2022/11/21 10:41:06;;;;;;;21.45;11.90;;;;;;;;;;4992390;28;20132;-64
2022/11/21 10:46:24;;;;;;;21.52;11.35;;;;;;;;;;5026578;28;20037;-63
2022/11/21 10:49:00;;;;;;;22.02;11.93;;;;;;;;;;4996381;28;20049;-63
2022/11/21 10:51:36;;;;;;;22.20;13.25;;;;;;;;;;4993360;28;20041;-63
2022/11/21 10:57:05;;;;;;;22.88;12.23;;;;;;;;;;5008944;28;20049;-64
2022/11/21 10:59:31;;;;;;;22.48;12.85;;;;;;;;;;4995590;28;20044;-64
2022/11/21 11:02:21;;;;;;;24.10;13.48;;;;;;;;;;4998201;28;20489;-64
2022/11/21 11:04:47;;;;;;;20.27;12.00;;;;;;;;;;4997191;28;20045;-63
2022/11/21 11:07:21;;;;;;;23.27;13.07;;;;;;;;;;5029621;28;20069;-63
2022/11/21 11:09:47;;;;;;;16.70;9.02;;;;;;;;;;5012738;28;20136;-63
2022/11/21 11:15:20;;;;;;;21.75;12.05;;;;;;;;;;5011154;28;20045;-63
2022/11/21 11:17:49;;;;;;;22.30;11.63;;;;;;;;;;5013575;28;20053;-63
2022/11/21 11:20:47;;;;;;;21.83;11.80;;;;;;;;;;5031258;28;20064;-63
2022/11/21 11:23:33;;;;;;;19.67;11.10;;;;;;;;;;4959380;28;20054;-63
2022/11/21 11:26:00;;;;;;;21.33;11.93;;;;;;;;;;5030968;28;20057;-63
2022/11/21 11:28:32;;;;;;;21.10;12.70;;;;;;;;;;5029291;28;20073;-63
2022/11/21 11:31:00;;;;;;;22.65;12.93;;;;;;;;;;5012684;28;20053;-65
2022/11/21 11:33:35;;;;;;;22.20;10.90;;;;;;;;;;5012014;28;20077;-63
2022/11/21 11:36:15;;;;;;;22.45;13.20;;;;;;;;;;5030397;28;20046;-63
2022/11/21 11:38:43;;;;;;;22.47;13.30;;;;;;;;;;5017157;28;20219;-64
2022/11/21 11:41:29;;;;;;;21.02;10.88;;;;;;;;;;5000468;28;20045;-64
2022/11/21 11:50:10;;;;;;;22.85;12.27;;;;;;;;;;5035792;28;20058;-63
2022/11/21 11:52:49;;;;;;;21.83;12.60;;;;;;;;;;5013938;28;20045;-63
2022/11/21 11:55:21;;;;;;;19.33;10.95;;;;;;;;;;5024566;28;20077;-63
2022/11/21 11:57:49;;;;;;;21.83;12.60;;;;;;;;;;4999912;28;20052;-63
2022/11/21 12:00:24;;;;;;;24.05;13.27;;;;;;;;;;4998998;28;20056;-63
2022/11/21 12:03:03;;;;;;;23.08;13.18;;;;;;;;;;5032988;28;20042;-64
2022/11/21 12:05:31;;;;;;;22.17;11.77;;;;;;;;;;5002310;28;20041;-63
2022/11/21 12:08:13;;;;;;;23.63;12.82;;;;;;;;;;5014981;28;20501;-63
2022/11/21 12:13:31;;;;;;;22.88;13.38;;;;;;;;;;5014841;28;20470;-63
2022/11/21 12:15:59;;;;;;;25.42;13.77;;;;;;;;;;5012917;28;20049;-64
2022/11/21 12:18:44;;;;;;;24.80;14.43;;;;;;;;;;4999500;28;20052;-65
2022/11/21 12:21:15;;;;;;;23.85;13.88;;;;;;;;;;5015884;28;20072;-64
2022/11/21 12:23:51;;;;;;;24.65;14.30;;;;;;;;;;5015136;28;20045;-64
2022/11/21 12:26:34;;;;;;;28.27;14.40;;;;;;;;;;5015738;28;20057;-64
2022/11/21 12:29:13;;;;;;;27.88;14.55;;;;;;;;;;5015208;28;20049;-63
2022/11/21 12:31:46;;;;;;;28.80;14.43;;;;;;;;;;5027136;28;20071;-64
2022/11/21 12:34:20;;;;;;;26.92;14.43;;;;;;;;;;5028113;28;20128;-63
2022/11/21 12:36:56;;;;;;;28.02;15.45;;;;;;;;;;5032128;28;20045;-63
2022/11/21 12:39:35;;;;;;;28.55;14.25;;;;;;;;;;5032932;28;20041;-63
2022/11/21 12:45:32;;;;;;;13.82;6.95;;;;;;;;;;4988193;28;20042;-63
2022/11/21 12:56:39;;;;;;;28.98;14.63;;;;;;;;;;4972715;28;20138;-63
2022/11/21 12:59:06;;;;;;;27.38;13.27;;;;;;;;;;4958226;28;20057;-63
2022/11/21 13:01:39;;;;;;;27.48;13.68;;;;;;;;;;4972204;28;20133;-63
2022/11/21 13:04:09;;;;;;;26.77;13.35;;;;;;;;;;5043809;22;20055;-63
2022/11/21 13:06:40;;;;;;;27.73;11.40;;;;;;;;;;5019308;28;20094;-63
2022/11/21 13:09:09;;;;;;;28.55;15.23;;;;;;;;;;5053421;28;20052;-63
2022/11/21 13:11:59;;;;;;;26.75;13.13;;;;;;;;;;5019239;28;20057;-63
2022/11/21 13:14:44;;;;;;;22.50;10.65;;;;;;;;;;4999711;28;20485;-63
2022/11/21 13:17:29;;;;;;;33.50;15.50;;;;;;;;;;5041790;23;20052;-63
2022/11/21 13:20:04;;;;;;;33.10;14.70;;;;;;;;;;4981984;23;20193;-63
2022/11/21 13:25:31;;;;;;;24.48;11.10;;;;;;;;;;4971247;28;20411;-63
2022/11/21 13:28:12;;;;;;;36.53;17.08;;;;;;;;;;4946859;28;20059;-63
2022/11/21 13:30:54;;;;;;;36.72;17.67;;;;;;;;;;4969562;28;20474;-63
2022/11/21 13:33:36;;;;;;;34.92;15.45;;;;;;;;;;4988035;28;20509;-63
2022/11/21 13:36:07;;;;;;;42.78;17.48;;;;;;;;;;4956730;28;20042;-63
2022/11/21 13:38:52;;;;;;;39.67;16.83;;;;;;;;;;4968063;28;20093;-63
2022/11/21 13:44:31;;;;;;;34.70;15.77;;;;;;;;;;4973024;28;20074;-63
2022/11/21 13:47:01;;;;;;;40.55;17.63;;;;;;;;;;4956062;28;20145;-63
2022/11/21 13:49:33;;;;;;;42.03;17.08;;;;;;;;;;4974480;28;20094;-63
2022/11/21 13:52:01;;;;;;;47.55;18.52;;;;;;;;;;4956869;28;20523;-63
2022/11/21 13:54:53;;;;;;;47.65;17.90;;;;;;;;;;4972918;28;20395;-64
2022/11/21 13:57:19;;;;;;;48.95;17.95;;;;;;;;;;5004831;28;20049;-64
2022/11/21 13:59:55;;;;;;;46.42;16.90;;;;;;;;;;4988507;28;20090;-63
2022/11/21 14:02:39;;;;;;;46.58;19.20;;;;;;;;;;4956465;28;20074;-63
2022/11/21 14:05:05;;;;;;;52.70;19.38;;;;;;;;;;4969941;28;20491;-63
2022/11/21 14:07:36;;;;;;;52.35;16.95;;;;;;;;;;4976814;28;20074;-63
2022/11/21 14:10:02;;;;;;;;;;;;;;;;;;4966811;28;20097;-64
2022/11/21 14:12:28;;;;;;;53.42;18.33;;;;;;;;;;4955196;28;20305;-63
2022/11/21 14:15:00;;;;;;;57.65;19.92;;;;;;;;;;4954321;28;20039;-63
2022/11/21 14:17:32;;;;;;;65.57;20.70;;;;;;;;;;4971367;28;20416;-63
2022/11/21 14:20:00;;;;;;;56.63;19.90;;;;;;;;;;4954325;28;20058;-63
2022/11/21 14:22:27;;;;;;;95.90;22.27;;;;;;;;;;4954988;28;20043;-63
2022/11/21 14:24:54;;;;;;;61.95;20.90;;;;;;;;;;4971581;28;20089;-63
2022/11/21 14:27:32;;;;;;;39.78;13.43;;;;;;;;;;4986532;28;20629;-64
2022/11/21 14:29:58;;;;;;;70.45;21.10;;;;;;;;;;4974053;28;20046;-63
2022/11/21 14:32:28;;;;;;;69.43;21.70;;;;;;;;;;4971827;28;20499;-63
2022/11/21 14:35:13;;;;;;;58.60;19.15;;;;;;;;;;4990316;28;20155;-63
2022/11/21 14:37:40;;;;;;;68.93;21.80;;;;;;;;;;4995646;28;20137;-66
2022/11/21 14:40:09;;;;;;;60.83;20.02;;;;;;;;;;4968378;28;20040;-63
2022/11/21 14:42:36;;;;;;;62.38;20.85;;;;;;;;;;4955969;28;20050;-62
2022/11/21 14:45:05;;;;;;;59.58;17.58;;;;;;;;;;4972150;28;20046;-63
2022/11/21 14:47:31;;;;;;;50.13;15.32;;;;;;;;;;4972031;28;20133;-64
2022/11/21 14:50:01;;;;;;;61.45;19.50;;;;;;;;;;4980607;28;20050;-63
2022/11/21 14:52:30;;;;;;;78.35;22.38;;;;;;;;;;4971472;28;20086;-63
2022/11/21 14:54:57;;;;;;;87.10;21.02;;;;;;;;;;4975154;28;20133;-63
2022/11/21 14:57:26;;;;;;;70.88;21.48;;;;;;;;;;4971003;28;20089;-63
2022/11/21 14:59:52;;;;;;;73.88;21.90;;;;;;;;;;5017606;28;20042;-64
2022/11/21 15:02:22;;;;;;;76.40;23.23;;;;;;;;;;4971487;28;20129;-63
2022/11/21 15:04:49;;;;;;;67.82;21.27;;;;;;;;;;4970261;28;20055;-63
2022/11/21 15:07:25;;;;;;;83.45;22.30;;;;;;;;;;4968330;28;20050;-64
2022/11/21 15:09:52;;;;;;;77.05;21.23;;;;;;;;;;4970427;28;20082;-64
2022/11/21 15:12:26;;;;;;;87.55;23.30;;;;;;;;;;4971321;28;20046;-63
2022/11/21 15:15:21;;;;;;;86.85;23.50;;;4.00;99.90;;;;;;4975436;28;20407;-64
2022/11/21 15:17:49;;;;;;;80.43;21.85;;;;;;;;;;4962506;28;20108;-64